Bogota, Colombia
Current Conditions -  °F | °C
As of 5:00 PM on Monday 22 Dec 2014 (Local Time) from SKBO Reporting Station
Scattered Clouds Scattered Clouds  
Wind Chill: 64°   Ceiling: Unl
Heat Index: 64°   Visibility: 6mi
Dew Point: 41°   Wind: 14mph
Humidity: 42%   Direction: 130°SE
Pressure: 30.24"   Gusts: NA
Location:  4.63°N, 74.09°W
Report Text: SKBO 222200Z 13012KT 9999 FEW023 SCT200 18/05 A3024
Loading
Personal Weather Stations






























Interactive Weather Map New forecast layout! Learn more

10-Day Weather Forecast

Advertisements
Track Severe Weather on mobile